createdAt,value
2023-09-08T00:00:39.083Z,11.000
2023-09-08T00:01:38.943Z,10.200
2023-09-08T00:02:39.506Z,11.000
2023-09-08T00:03:39.271Z,11.500
2023-09-08T00:04:39.674Z,11.700
2023-09-08T00:05:39.733Z,10.700
2023-09-08T00:06:39.323Z,10.700
2023-09-08T00:07:39.159Z,10.500
2023-09-08T00:08:38.916Z,10.300
2023-09-08T00:09:39.599Z,11.500
2023-09-08T00:10:39.444Z,11.800
2023-09-08T00:11:39.082Z,11.000
2023-09-08T00:12:38.751Z,10.000
2023-09-08T00:13:40.116Z,10.600
2023-09-08T00:14:38.878Z,10.600
2023-09-08T00:15:39.638Z,10.100
2023-09-08T00:16:39.913Z,10.500
2023-09-08T00:18:39.211Z,10.900
2023-09-08T00:20:38.884Z,10.300
2023-09-08T00:21:39.635Z,10.200
2023-09-08T00:23:39.312Z,10.400
2023-09-08T00:24:39.141Z,10.400
2023-09-08T00:25:38.778Z,11.400
2023-09-08T00:26:39.663Z,10.400
2023-09-08T00:27:39.276Z,10.700
2023-09-08T00:28:39.308Z,10.900
2023-09-08T00:29:39.437Z,10.900
2023-09-08T00:30:39.313Z,10.000
2023-09-08T00:31:39.460Z,10.400
2023-09-08T00:32:39.744Z,9.900
2023-09-08T00:33:38.999Z,10.400
2023-09-08T00:34:39.020Z,10.600
2023-09-08T00:35:40.114Z,10.400
2023-09-08T00:36:39.084Z,10.400
2023-09-08T00:37:38.745Z,11.600
2023-09-08T00:38:40.751Z,11.400
2023-09-08T00:39:39.449Z,10.100
2023-09-08T00:40:39.031Z,10.800
2023-09-08T00:43:39.073Z,10.600
2023-09-08T00:44:38.647Z,9.600
2023-09-08T00:45:40.514Z,9.300
2023-09-08T00:46:39.742Z,11.000
2023-09-08T00:47:39.986Z,11.200
2023-09-08T00:48:39.437Z,10.000
2023-09-08T00:50:39.542Z,10.800
2023-09-08T00:52:38.933Z,9.700
2023-09-08T00:53:39.666Z,10.100
2023-09-08T00:54:39.289Z,10.900
2023-09-08T00:55:38.868Z,10.300
2023-09-08T00:56:39.969Z,11.000
2023-09-08T00:57:38.764Z,11.100
2023-09-08T00:58:40.839Z,10.200
2023-09-08T00:59:39.455Z,10.500
2023-09-08T01:00:39.248Z,10.400
2023-09-08T01:02:39.376Z,11.300
2023-09-08T01:03:39.652Z,11.000
2023-09-08T01:04:39.864Z,10.800
2023-09-08T01:05:39.517Z,10.400
2023-09-08T01:06:39.571Z,10.800
2023-09-08T01:07:39.174Z,10.200
2023-09-08T01:08:39.320Z,10.700
2023-09-08T01:09:39.656Z,10.300
2023-09-08T01:10:39.429Z,10.900
2023-09-08T01:12:38.842Z,10.300
2023-09-08T01:13:39.458Z,9.500
2023-09-08T01:14:39.019Z,9.800
2023-09-08T01:15:38.798Z,10.600
2023-09-08T01:16:39.988Z,11.000
2023-09-08T01:17:38.851Z,11.000
2023-09-08T01:18:40.019Z,10.900
2023-09-08T01:19:39.080Z,11.200
2023-09-08T01:21:39.868Z,10.800
2023-09-08T01:22:39.571Z,10.700
2023-09-08T01:23:39.275Z,10.000
2023-09-08T01:24:39.344Z,10.400
2023-09-08T01:25:39.004Z,10.600
2023-09-08T01:26:38.601Z,11.300
2023-09-08T01:27:39.384Z,11.400
2023-09-08T01:28:40.290Z,10.600
2023-09-08T01:29:38.968Z,10.300
2023-09-08T01:30:39.617Z,11.300
2023-09-08T01:31:40.408Z,11.100
2023-09-08T01:32:39.607Z,10.900
2023-09-08T01:33:39.349Z,10.600
2023-09-08T01:35:38.943Z,10.300
2023-09-08T01:36:39.619Z,10.600
2023-09-08T01:37:39.245Z,11.100
2023-09-08T01:38:40.089Z,11.400
2023-09-08T01:39:39.012Z,12.300
2023-09-08T01:41:39.492Z,11.300
2023-09-08T01:42:39.016Z,11.100
2023-09-08T01:43:38.716Z,12.300
2023-09-08T01:44:39.864Z,10.700
2023-09-08T01:45:39.866Z,11.200
2023-09-08T01:46:39.800Z,11.900
2023-09-08T01:47:39.935Z,11.300
2023-09-08T01:48:40.420Z,11.500
2023-09-08T01:49:39.056Z,11.000
2023-09-08T01:50:38.653Z,10.900
2023-09-08T01:51:39.458Z,11.100
2023-09-08T01:53:38.711Z,11.600
2023-09-08T01:54:39.578Z,10.100
2023-09-08T01:55:39.366Z,11.000
2023-09-08T01:56:39.044Z,11.200
2023-09-08T01:57:38.635Z,11.400
2023-09-08T01:58:40.688Z,11.400
2023-09-08T01:59:39.624Z,11.500
2023-09-08T02:01:39.526Z,11.500
2023-09-08T02:02:39.410Z,11.900
2023-09-08T02:03:39.171Z,11.100
2023-09-08T02:04:39.506Z,11.800
2023-09-08T02:05:40.375Z,11.700
2023-09-08T02:06:39.211Z,11.000
2023-09-08T02:08:40.556Z,11.400
2023-09-08T02:09:39.293Z,12.000
2023-09-08T02:10:38.895Z,11.900
2023-09-08T02:11:39.583Z,11.100
2023-09-08T02:12:39.295Z,11.500
2023-09-08T02:13:38.896Z,11.000
2023-09-08T02:14:39.687Z,11.300
2023-09-08T02:15:40.276Z,10.900
2023-09-08T02:16:39.163Z,11.800
2023-09-08T02:17:39.056Z,12.200
2023-09-08T02:18:39.628Z,11.800
2023-09-08T02:20:39.293Z,12.700
2023-09-08T02:21:39.251Z,11.100
2023-09-08T02:22:38.999Z,11.600
2023-09-08T02:23:38.582Z,11.700
2023-09-08T02:24:39.794Z,11.600
2023-09-08T02:25:39.538Z,10.900
2023-09-08T02:27:39.061Z,11.200
2023-09-08T02:28:40.178Z,11.400
2023-09-08T02:29:38.790Z,11.600
2023-09-08T02:30:40.059Z,11.800
2023-09-08T02:31:38.699Z,11.300
2023-09-08T02:32:39.732Z,11.100
2023-09-08T02:33:40.203Z,11.400
2023-09-08T02:36:39.371Z,11.600
2023-09-08T02:37:39.067Z,12.200
2023-09-08T02:38:39.645Z,12.400
2023-09-08T02:40:39.231Z,10.900
2023-09-08T02:41:39.455Z,10.900
2023-09-08T02:43:39.228Z,11.800
2023-09-08T02:44:38.820Z,11.300
2023-09-08T02:45:42.221Z,11.300
2023-09-08T02:47:39.046Z,11.500
2023-09-08T02:48:39.018Z,11.400
2023-09-08T02:50:38.739Z,11.900
2023-09-08T02:51:38.943Z,11.500
2023-09-08T02:52:39.661Z,11.700
2023-09-08T02:53:39.228Z,11.700
2023-09-08T02:54:38.994Z,11.600
2023-09-08T02:55:39.370Z,11.300
2023-09-08T02:56:39.177Z,11.600
2023-09-08T02:57:38.824Z,11.800
2023-09-08T02:58:40.294Z,11.800
2023-09-08T03:00:38.955Z,11.500
2023-09-08T03:01:40.257Z,11.800
2023-09-08T03:02:39.803Z,11.200
2023-09-08T03:03:39.317Z,11.000
2023-09-08T03:04:40.716Z,11.500
2023-09-08T03:05:39.400Z,11.300
2023-09-08T03:06:39.028Z,11.300
2023-09-08T03:08:40.523Z,12.000
2023-09-08T03:09:39.119Z,11.700
2023-09-08T03:10:38.646Z,10.700
2023-09-08T03:11:39.470Z,10.900
2023-09-08T03:12:39.134Z,11.600
2023-09-08T03:13:38.777Z,11.800
2023-09-08T03:14:39.606Z,12.000
2023-09-08T03:16:39.374Z,12.100
2023-09-08T03:17:39.597Z,12.000
2023-09-08T03:18:40.424Z,11.800
2023-09-08T03:19:39.299Z,11.800
2023-09-08T03:20:39.004Z,11.100
2023-09-08T03:21:38.617Z,11.100
2023-09-08T03:22:39.333Z,11.500
2023-09-08T03:23:39.292Z,10.900
2023-09-08T03:25:38.861Z,11.200
2023-09-08T03:26:39.712Z,12.800
2023-09-08T03:27:39.342Z,11.900
2023-09-08T03:28:40.183Z,11.600
2023-09-08T03:29:38.800Z,11.600
2023-09-08T03:30:39.594Z,11.600
2023-09-08T03:31:39.810Z,11.900
2023-09-08T03:32:39.301Z,11.100
2023-09-08T03:33:39.979Z,10.900
2023-09-08T03:34:39.452Z,11.600
2023-09-08T03:35:39.188Z,10.900
2023-09-08T03:36:38.982Z,11.000
2023-09-08T03:39:38.709Z,10.000
2023-09-08T03:40:39.390Z,10.100
2023-09-08T03:41:38.917Z,10.000
2023-09-08T03:42:39.631Z,11.300
2023-09-08T03:43:40.316Z,10.700
2023-09-08T03:44:38.905Z,10.100
2023-09-08T03:45:39.777Z,9.700
2023-09-08T03:46:39.368Z,10.700
2023-09-08T03:47:39.895Z,9.900
2023-09-08T03:48:38.755Z,10.300
2023-09-08T03:49:39.622Z,10.200
2023-09-08T03:50:39.323Z,10.000
2023-09-08T03:51:38.874Z,10.300
2023-09-08T03:52:39.527Z,9.500
2023-09-08T03:53:40.582Z,9.700
2023-09-08T03:54:39.263Z,9.600
2023-09-08T03:57:39.542Z,9.600
2023-09-08T03:58:39.664Z,9.300
2023-09-08T03:59:39.165Z,10.400
2023-09-08T04:00:38.856Z,10.000
2023-09-08T04:01:39.795Z,10.300
2023-09-08T04:02:39.990Z,10.500
2023-09-08T04:03:40.971Z,11.700
2023-09-08T04:04:38.853Z,11.100
2023-09-08T04:05:39.813Z,10.700
2023-09-08T04:06:39.449Z,11.200
2023-09-08T04:07:39.358Z,12.700
2023-09-08T04:08:39.048Z,12.300
2023-09-08T04:09:38.731Z,13.700
2023-09-08T04:10:39.399Z,12.700
2023-09-08T04:11:39.422Z,13.400
2023-09-08T04:12:39.149Z,13.200
2023-09-08T04:13:39.930Z,12.500
2023-09-08T04:15:39.613Z,12.000
2023-09-08T04:16:39.249Z,10.900
2023-09-08T04:17:39.018Z,11.500
2023-09-08T04:18:39.745Z,12.000
2023-09-08T04:19:39.513Z,11.800
2023-09-08T04:21:38.958Z,11.400
2023-09-08T04:22:39.895Z,11.600
2023-09-08T04:23:40.931Z,11.400
2023-09-08T04:24:39.743Z,11.600
2023-09-08T04:25:39.459Z,12.200
2023-09-08T04:27:38.782Z,12.300
2023-09-08T04:28:39.444Z,11.900
2023-09-08T04:29:39.095Z,11.800
2023-09-08T04:30:39.322Z,11.400
2023-09-08T04:31:39.452Z,10.100
2023-09-08T04:32:39.434Z,11.100
2023-09-08T04:33:40.871Z,11.200
2023-09-08T04:34:38.848Z,10.200
2023-09-08T04:35:39.488Z,11.400
2023-09-08T04:36:39.236Z,10.500
2023-09-08T04:37:38.892Z,11.100
2023-09-08T04:38:39.507Z,10.700
2023-09-08T04:39:39.594Z,10.800
2023-09-08T04:40:39.291Z,11.900
2023-09-08T04:42:39.071Z,10.900
2023-09-08T04:43:39.881Z,11.100
2023-09-08T04:45:39.313Z,10.500
2023-09-08T04:46:39.347Z,10.700
2023-09-08T04:47:39.219Z,10.700
2023-09-08T04:48:40.668Z,10.400
2023-09-08T04:49:39.091Z,10.600
2023-09-08T04:50:38.691Z,10.500
2023-09-08T04:51:39.452Z,10.700
2023-09-08T04:52:39.083Z,11.400
2023-09-08T04:53:38.826Z,9.700
2023-09-08T04:54:39.566Z,10.900
2023-09-08T04:55:39.161Z,10.600
2023-09-08T04:56:39.081Z,11.000
2023-09-08T04:59:39.554Z,10.500
2023-09-08T05:00:39.211Z,10.600
2023-09-08T05:02:40.292Z,10.400
2023-09-08T05:03:39.961Z,9.700
2023-09-08T05:04:38.916Z,9.500
2023-09-08T05:05:39.835Z,9.700
2023-09-08T05:06:39.624Z,8.900
2023-09-08T05:08:40.123Z,9.100
2023-09-08T05:09:38.799Z,9.300
2023-09-08T05:10:39.435Z,9.600
2023-09-08T05:11:39.204Z,8.700
2023-09-08T05:12:38.948Z,8.600
2023-09-08T05:13:43.508Z,9.100
2023-09-08T05:14:39.167Z,9.600
2023-09-08T05:15:41.056Z,8.900
2023-09-08T05:16:39.066Z,8.800
2023-09-08T05:18:40.597Z,9.300
2023-09-08T05:19:39.401Z,9.300
2023-09-08T05:20:38.960Z,8.300
2023-09-08T05:21:39.878Z,9.800
2023-09-08T05:22:39.625Z,8.900
2023-09-08T05:23:39.294Z,9.700
2023-09-08T05:24:38.949Z,8.900
2023-09-08T05:25:39.647Z,8.900
2023-09-08T05:27:39.126Z,8.800
2023-09-08T05:28:44.320Z,9.100
2023-09-08T05:31:38.802Z,8.400
2023-09-08T05:32:40.260Z,8.800
2023-09-08T05:33:39.303Z,9.100
2023-09-08T05:34:38.998Z,9.100
2023-09-08T05:35:39.605Z,8.600
2023-09-08T05:36:39.419Z,7.900
2023-09-08T05:37:39.457Z,8.600
2023-09-08T05:38:39.802Z,8.400
2023-09-08T05:40:39.417Z,8.700
2023-09-08T05:41:38.993Z,8.600
2023-09-08T05:42:38.566Z,8.800
2023-09-08T05:43:39.561Z,8.600
2023-09-08T05:44:39.616Z,8.000
2023-09-08T05:45:39.224Z,9.100
2023-09-08T05:46:39.324Z,9.100
2023-09-08T05:47:39.565Z,8.800
2023-09-08T05:48:39.908Z,8.900
2023-09-08T05:49:41.642Z,9.000
2023-09-08T05:50:39.371Z,8.900
2023-09-08T05:53:40.292Z,7.800
2023-09-08T05:54:38.977Z,8.800
2023-09-08T05:55:38.692Z,9.000
2023-09-08T05:56:39.344Z,9.000
2023-09-08T05:57:38.924Z,7.800
2023-09-08T05:58:40.163Z,8.600
2023-09-08T05:59:38.961Z,8.800
2023-09-08T06:00:38.641Z,8.400
2023-09-08T06:01:39.710Z,8.300
2023-09-08T06:02:40.178Z,9.300
2023-09-08T06:03:40.058Z,8.800
2023-09-08T06:04:39.494Z,9.400
2023-09-08T06:05:39.172Z,9.900
2023-09-08T06:08:40.561Z,10.200
2023-09-08T06:09:39.837Z,10.000
2023-09-08T06:10:43.562Z,10.600
2023-09-08T06:11:42.171Z,9.800
2023-09-08T06:12:42.120Z,8.800
2023-09-08T06:13:41.746Z,10.100
2023-09-08T06:14:45.497Z,9.400
2023-09-08T06:15:42.235Z,9.400
2023-09-08T06:17:42.004Z,9.300
2023-09-08T06:18:43.315Z,10.000
2023-09-08T06:21:39.544Z,9.700
2023-09-08T06:22:39.146Z,10.200
2023-09-08T06:23:40.912Z,9.800
2023-09-08T06:24:38.693Z,10.000
2023-09-08T06:25:39.432Z,9.100
2023-09-08T06:26:39.334Z,9.700
2023-09-08T06:27:39.019Z,9.500
2023-09-08T06:28:39.230Z,9.200
2023-09-08T06:30:39.652Z,10.000
2023-09-08T06:31:39.631Z,10.300
2023-09-08T06:32:39.826Z,10.300
2023-09-08T06:33:39.587Z,10.600
2023-09-08T06:34:38.964Z,10.100
2023-09-08T06:35:39.691Z,10.900
2023-09-08T06:36:39.684Z,10.900
2023-09-08T06:38:40.127Z,10.800
2023-09-08T06:39:39.073Z,11.400
2023-09-08T06:40:38.815Z,11.000
2023-09-08T06:41:39.370Z,11.800
2023-09-08T06:42:39.271Z,10.400
2023-09-08T06:44:38.832Z,11.400
2023-09-08T06:45:39.569Z,11.800
2023-09-08T06:46:39.530Z,11.500
2023-09-08T06:47:39.880Z,11.300
2023-09-08T06:48:39.954Z,11.800
2023-09-08T06:50:39.749Z,11.400
2023-09-08T06:51:39.599Z,11.700
2023-09-08T06:54:38.671Z,11.600
2023-09-08T06:55:40.454Z,11.500
2023-09-08T06:56:39.725Z,11.700
2023-09-08T06:58:39.993Z,10.800
2023-09-08T06:59:38.724Z,11.700
2023-09-08T07:00:39.658Z,12.000
2023-09-08T07:01:40.901Z,11.300
2023-09-08T07:03:39.448Z,11.400
2023-09-08T07:04:39.717Z,11.500
2023-09-08T07:05:38.837Z,11.000
2023-09-08T07:06:39.711Z,11.800
2023-09-08T07:07:39.368Z,11.400
2023-09-08T07:08:40.424Z,10.800
2023-09-08T07:09:39.097Z,11.200
2023-09-08T07:10:38.992Z,11.000
2023-09-08T07:11:38.667Z,11.000
2023-09-08T07:12:39.343Z,10.900
2023-09-08T07:13:39.420Z,10.300
2023-09-08T07:14:39.138Z,11.000
2023-09-08T07:17:39.958Z,11.800
2023-09-08T07:18:39.775Z,11.000
2023-09-08T07:19:39.942Z,10.000
2023-09-08T07:20:38.707Z,9.500
2023-09-08T07:21:39.368Z,9.300
2023-09-08T07:22:39.426Z,9.100
2023-09-08T07:23:39.212Z,9.300
2023-09-08T07:24:38.968Z,8.700
2023-09-08T07:25:39.699Z,9.100
2023-09-08T07:26:39.281Z,8.400
2023-09-08T07:27:40.286Z,9.000
2023-09-08T07:28:39.314Z,8.700
2023-09-08T07:31:39.728Z,8.700
2023-09-08T07:32:39.799Z,8.300
2023-09-08T07:33:39.903Z,8.600
2023-09-08T07:34:39.743Z,8.600
2023-09-08T07:36:39.134Z,8.300
2023-09-08T07:37:38.875Z,8.400
2023-09-08T07:38:40.405Z,8.100
2023-09-08T07:39:39.103Z,8.600
2023-09-08T07:40:38.948Z,7.800
2023-09-08T07:41:39.809Z,8.000
2023-09-08T07:42:39.434Z,8.500
2023-09-08T07:43:39.483Z,8.900
2023-09-08T07:44:40.022Z,8.400
2023-09-08T07:45:38.855Z,8.900
2023-09-08T07:46:39.917Z,8.200
2023-09-08T07:47:42.569Z,8.500
2023-09-08T07:48:41.238Z,8.400
2023-09-08T07:49:39.376Z,7.900
2023-09-08T07:50:39.034Z,8.200
2023-09-08T07:51:38.738Z,8.000
2023-09-08T07:52:39.390Z,8.400
2023-09-08T07:53:39.316Z,8.300
2023-09-08T07:54:39.028Z,7.800
2023-09-08T07:55:38.587Z,7.500
2023-09-08T07:56:39.613Z,8.200
2023-09-08T07:57:39.620Z,8.300
2023-09-08T07:58:40.610Z,8.700
2023-09-08T07:59:43.294Z,9.000
2023-09-08T08:02:39.470Z,9.100
2023-09-08T08:03:39.744Z,7.800
2023-09-08T08:04:40.001Z,8.000
2023-09-08T08:05:39.092Z,8.200
2023-09-08T08:06:38.770Z,8.300
2023-09-08T08:07:39.369Z,8.200
2023-09-08T08:08:40.173Z,8.500
2023-09-08T08:09:38.969Z,7.900
2023-09-08T08:10:38.891Z,7.500
2023-09-08T08:11:39.734Z,8.200
2023-09-08T08:12:39.604Z,8.100
2023-09-08T08:14:38.904Z,7.800
2023-09-08T08:15:39.783Z,7.700
2023-09-08T08:16:39.742Z,7.400
2023-09-08T08:17:40.887Z,8.000
2023-09-08T08:18:41.587Z,7.900
2023-09-08T08:19:39.791Z,8.800
2023-09-08T08:20:39.749Z,7.900
2023-09-08T08:21:39.921Z,8.800
2023-09-08T08:22:38.864Z,7.800
2023-09-08T08:23:41.488Z,8.000
2023-09-08T08:24:39.351Z,7.800
2023-09-08T08:25:39.094Z,8.200
2023-09-08T08:26:38.883Z,7.600
2023-09-08T08:27:39.833Z,7.600
2023-09-08T08:28:40.331Z,7.800
2023-09-08T08:29:38.963Z,7.800
2023-09-08T08:30:39.932Z,7.000
2023-09-08T08:31:39.636Z,7.700
2023-09-08T08:33:39.707Z,8.400
2023-09-08T08:34:39.476Z,7.700
2023-09-08T08:36:39.103Z,7.800
2023-09-08T08:37:38.687Z,7.600
2023-09-08T08:38:40.986Z,7.600
2023-09-08T08:39:39.606Z,8.100
2023-09-08T08:41:39.080Z,7.300
2023-09-08T08:42:38.766Z,7.300
2023-09-08T08:43:39.853Z,7.800
2023-09-08T08:44:38.664Z,7.500
2023-09-08T08:45:39.681Z,7.300
2023-09-08T08:46:39.427Z,7.400
2023-09-08T08:47:39.432Z,7.400
2023-09-08T08:48:41.283Z,7.300
2023-09-08T08:49:39.274Z,7.700
2023-09-08T08:50:38.932Z,7.500
2023-09-08T08:51:39.094Z,7.300
2023-09-08T08:52:39.485Z,7.800
2023-09-08T08:54:39.263Z,7.600
2023-09-08T08:55:39.004Z,6.900
2023-09-08T08:56:38.672Z,7.600
2023-09-08T08:57:39.410Z,6.900
2023-09-08T08:58:40.542Z,7.000
2023-09-08T08:59:39.411Z,7.400
2023-09-08T09:01:39.363Z,7.000
2023-09-08T09:02:39.517Z,7.800
2023-09-08T09:03:39.710Z,7.300
2023-09-08T09:04:39.752Z,7.500
2023-09-08T09:05:39.550Z,7.800
2023-09-08T09:06:39.403Z,7.200
2023-09-08T09:07:39.180Z,7.300
2023-09-08T09:08:39.634Z,7.100
2023-09-08T09:10:39.289Z,7.300
2023-09-08T09:11:39.241Z,7.500
2023-09-08T09:12:38.941Z,7.700
2023-09-08T09:13:39.574Z,7.800
2023-09-08T09:14:39.514Z,7.300
2023-09-08T09:15:39.881Z,7.800
2023-09-08T09:16:39.571Z,8.000
2023-09-08T09:17:39.437Z,8.000
2023-09-08T09:18:40.486Z,7.700
2023-09-08T09:20:38.828Z,7.300
2023-09-08T09:21:40.513Z,6.800
2023-09-08T09:22:39.212Z,7.000
2023-09-08T09:24:40.372Z,7.100
2023-09-08T09:25:40.599Z,7.700
2023-09-08T09:27:39.007Z,7.900
2023-09-08T09:28:41.084Z,8.200
2023-09-08T09:29:38.696Z,7.600
2023-09-08T09:30:39.855Z,7.600
2023-09-08T09:31:39.552Z,7.700
2023-09-08T09:33:39.869Z,7.600
2023-09-08T09:34:38.769Z,7.400
2023-09-08T09:35:40.359Z,7.200
2023-09-08T09:36:38.988Z,7.300
2023-09-08T09:37:40.038Z,7.300
2023-09-08T09:38:39.521Z,6.700
2023-09-08T09:40:39.072Z,6.900
2023-09-08T09:42:39.501Z,7.500
2023-09-08T09:43:39.204Z,7.700
2023-09-08T09:44:38.932Z,7.900
2023-09-08T09:45:39.897Z,7.600
2023-09-08T09:46:38.656Z,7.400
2023-09-08T09:47:39.454Z,6.900
2023-09-08T09:48:39.971Z,7.300
2023-09-08T09:49:39.063Z,7.000
2023-09-08T09:50:38.985Z,7.500
2023-09-08T09:51:38.634Z,7.400
2023-09-08T09:52:39.335Z,7.100
2023-09-08T09:54:38.864Z,7.000
2023-09-08T09:55:39.502Z,7.200
2023-09-08T09:56:39.120Z,6.700
2023-09-08T09:57:39.486Z,6.700
2023-09-08T09:58:40.874Z,6.900
2023-09-08T09:59:38.684Z,7.100
2023-09-08T10:00:39.627Z,7.200
2023-09-08T10:01:39.927Z,7.500
2023-09-08T10:02:41.183Z,7.000
2023-09-08T10:03:39.698Z,7.000
2023-09-08T10:05:39.363Z,7.600
2023-09-08T10:06:39.384Z,7.400
2023-09-08T10:07:39.126Z,7.300
2023-09-08T10:08:39.974Z,6.800
2023-09-08T10:09:38.818Z,7.100
2023-09-08T10:10:39.553Z,7.700
2023-09-08T10:11:40.484Z,7.500
2023-09-08T10:12:39.088Z,7.600
2023-09-08T10:13:39.240Z,7.500
2023-09-08T10:14:38.972Z,7.000
2023-09-08T10:15:40.133Z,7.000
2023-09-08T10:17:39.145Z,7.000
2023-09-08T10:18:39.552Z,6.800
2023-09-08T10:19:39.277Z,7.400
2023-09-08T10:20:38.890Z,7.000
2023-09-08T10:21:39.562Z,6.800
2023-09-08T10:22:40.117Z,6.400
2023-09-08T10:23:38.870Z,7.100
2023-09-08T10:24:40.320Z,7.200
2023-09-08T10:25:39.084Z,6.100
2023-09-08T10:26:38.722Z,6.600
2023-09-08T10:27:39.685Z,6.600
2023-09-08T10:28:41.179Z,6.800
2023-09-08T10:29:39.001Z,6.800
2023-09-08T10:30:38.758Z,7.000
2023-09-08T10:31:39.104Z,6.800
2023-09-08T10:32:38.900Z,6.900
2023-09-08T10:33:40.265Z,7.100
2023-09-08T10:34:39.138Z,6.700
2023-09-08T10:35:39.511Z,7.400
2023-09-08T10:36:42.362Z,7.100
2023-09-08T10:39:39.854Z,6.500
2023-09-08T10:40:38.781Z,6.500
2023-09-08T10:41:39.425Z,7.100
2023-09-08T10:42:39.156Z,6.400
2023-09-08T10:43:38.947Z,6.500
2023-09-08T10:44:41.180Z,6.700
2023-09-08T10:45:39.072Z,7.900
2023-09-08T10:46:39.234Z,6.400
2023-09-08T10:47:39.205Z,7.000
2023-09-08T10:48:40.172Z,6.600
2023-09-08T10:49:39.023Z,6.800
2023-09-08T10:50:39.708Z,6.100
2023-09-08T10:51:39.382Z,6.700
2023-09-08T10:54:39.510Z,6.200
2023-09-08T10:55:39.332Z,7.000
2023-09-08T10:56:39.179Z,7.000
2023-09-08T10:57:38.918Z,6.600
2023-09-08T10:58:41.271Z,6.200
2023-09-08T10:59:38.950Z,6.600
2023-09-08T11:00:39.652Z,7.000
2023-09-08T11:01:40.088Z,6.600
2023-09-08T11:02:39.550Z,6.300
2023-09-08T11:04:39.588Z,6.900
2023-09-08T11:05:39.337Z,6.100
2023-09-08T11:08:40.463Z,6.300
2023-09-08T11:09:39.275Z,6.800
2023-09-08T11:10:38.902Z,6.300
2023-09-08T11:11:39.827Z,6.400
2023-09-08T11:12:39.555Z,5.700
2023-09-08T11:14:39.873Z,6.600
2023-09-08T11:15:38.629Z,6.600
2023-09-08T11:16:39.743Z,6.500
2023-09-08T11:17:39.923Z,6.300
2023-09-08T11:18:40.699Z,6.900
2023-09-08T11:19:39.604Z,6.800
2023-09-08T11:21:42.201Z,6.100
2023-09-08T11:22:39.246Z,5.600
2023-09-08T11:24:40.670Z,6.800
2023-09-08T11:25:39.385Z,6.800
2023-09-08T11:26:39.280Z,6.500
2023-09-08T11:27:38.999Z,6.800
2023-09-08T11:28:40.384Z,6.000
2023-09-08T11:29:40.184Z,6.600
2023-09-08T11:30:38.888Z,6.100
2023-09-08T11:31:39.980Z,5.800
2023-09-08T11:32:39.109Z,6.000
2023-09-08T11:33:39.097Z,6.000
2023-09-08T11:34:38.964Z,5.900
2023-09-08T11:35:38.725Z,6.400
2023-09-08T11:36:39.665Z,6.200
2023-09-08T11:38:39.555Z,6.100
2023-09-08T11:40:39.605Z,6.000
2023-09-08T11:43:39.544Z,6.000
2023-09-08T11:44:39.805Z,5.800
2023-09-08T11:45:39.533Z,6.000
2023-09-08T11:46:40.167Z,6.000
2023-09-08T11:47:39.335Z,5.900
2023-09-08T11:48:40.378Z,5.500
2023-09-08T11:49:39.164Z,6.100
2023-09-08T11:50:38.834Z,5.600
2023-09-08T11:51:39.478Z,6.200
2023-09-08T11:52:39.187Z,5.900
2023-09-08T11:53:39.604Z,5.600
2023-09-08T11:54:51.937Z,5.400
2023-09-08T11:56:40.348Z,6.400
2023-09-08T11:57:39.078Z,6.100
2023-09-08T11:58:39.820Z,6.400
2023-09-08T11:59:38.765Z,6.500
2023-09-08T12:00:39.450Z,6.400
2023-09-08T12:02:39.126Z,6.000
2023-09-08T12:03:39.267Z,5.900
2023-09-08T12:04:39.404Z,6.600
2023-09-08T12:05:39.333Z,6.100
2023-09-08T12:06:39.293Z,6.000
2023-09-08T12:07:38.973Z,6.100
2023-09-08T12:08:39.077Z,6.000
2023-09-08T12:10:38.734Z,6.000
2023-09-08T12:11:39.346Z,5.700
2023-09-08T12:12:38.927Z,6.100
2023-09-08T12:13:39.595Z,5.400
2023-09-08T12:14:39.311Z,6.100
2023-09-08T12:15:39.534Z,5.900
2023-09-08T12:16:39.610Z,5.700
2023-09-08T12:19:38.902Z,5.600
2023-09-08T12:20:39.592Z,6.000
2023-09-08T12:21:39.265Z,5.500
2023-09-08T12:22:38.887Z,5.100
2023-09-08T12:23:39.462Z,6.000
2023-09-08T12:24:39.075Z,5.600
2023-09-08T12:27:38.806Z,5.800
2023-09-08T12:28:40.583Z,5.000
2023-09-08T12:29:39.333Z,5.500
2023-09-08T12:30:38.939Z,5.600
2023-09-08T12:31:39.410Z,5.200
2023-09-08T12:32:39.571Z,5.800
2023-09-08T12:33:39.296Z,5.400
2023-09-08T12:34:39.075Z,5.200
2023-09-08T12:35:40.902Z,6.000
2023-09-08T12:36:39.617Z,5.800
2023-09-08T12:37:39.287Z,6.100
2023-09-08T12:38:39.684Z,5.500
2023-09-08T12:39:39.285Z,5.100
2023-09-08T12:41:39.480Z,5.300
2023-09-08T12:42:50.954Z,5.600
2023-09-08T12:44:39.488Z,5.600
2023-09-08T12:45:39.215Z,5.900
2023-09-08T12:46:39.123Z,5.200
2023-09-08T12:47:39.537Z,5.700
2023-09-08T12:48:39.982Z,6.400
2023-09-08T12:50:39.603Z,5.800
2023-09-08T12:51:39.198Z,5.900
2023-09-08T12:52:39.391Z,5.700
2023-09-08T12:53:39.791Z,5.700
2023-09-08T12:54:39.519Z,5.600
2023-09-08T12:56:38.766Z,6.100
2023-09-08T12:57:40.005Z,5.600
2023-09-08T12:58:39.311Z,6.200
2023-09-08T13:00:39.931Z,6.100
2023-09-08T13:01:40.026Z,5.900
2023-09-08T13:02:38.941Z,5.900
2023-09-08T13:03:39.173Z,5.700
2023-09-08T13:04:39.194Z,5.700
2023-09-08T13:05:41.399Z,5.800
2023-09-08T13:06:39.442Z,5.600
2023-09-08T13:07:39.247Z,5.500
2023-09-08T13:08:40.596Z,6.000
2023-09-08T13:09:39.514Z,5.600
2023-09-08T13:10:39.545Z,5.200
2023-09-08T13:11:39.297Z,5.200
2023-09-08T13:12:39.027Z,6.000
2023-09-08T13:13:39.293Z,5.600
2023-09-08T13:14:38.924Z,5.800
2023-09-08T13:15:40.045Z,5.700
2023-09-08T13:16:39.681Z,5.400
2023-09-08T13:17:39.869Z,5.500
2023-09-08T13:18:40.455Z,6.000
2023-09-08T13:19:39.102Z,5.600
2023-09-08T13:20:38.911Z,5.800
2023-09-08T13:21:38.919Z,5.900
2023-09-08T13:22:39.949Z,5.400
2023-09-08T13:23:39.594Z,6.000
2023-09-08T13:24:40.537Z,4.800
2023-09-08T13:25:39.721Z,6.400
2023-09-08T13:26:42.080Z,9.800
2023-09-08T13:27:38.942Z,5.600
2023-09-08T13:28:40.841Z,5.700
2023-09-08T13:29:39.562Z,5.600
2023-09-08T13:30:39.206Z,5.300
2023-09-08T13:31:39.506Z,5.600
2023-09-08T13:32:40.458Z,5.900
2023-09-08T13:33:39.248Z,5.800
2023-09-08T13:34:38.984Z,5.600
2023-09-08T13:35:38.669Z,6.100
2023-09-08T13:36:39.320Z,5.900
2023-09-08T13:37:38.974Z,6.100
2023-09-08T13:38:40.135Z,5.800
2023-09-08T13:39:38.899Z,5.100
2023-09-08T13:40:39.332Z,6.000
2023-09-08T13:41:39.087Z,5.400
2023-09-08T13:42:38.746Z,5.500
2023-09-08T13:43:39.877Z,5.200
2023-09-08T13:44:39.913Z,5.600
2023-09-08T13:45:40.225Z,5.600
2023-09-08T13:46:39.568Z,6.000
2023-09-08T13:47:43.237Z,5.900
2023-09-08T13:48:46.486Z,6.000
2023-09-08T13:49:42.124Z,6.100
2023-09-08T13:50:44.695Z,5.600
2023-09-08T13:51:46.017Z,6.300
2023-09-08T13:52:42.924Z,5.000
2023-09-08T13:53:58.074Z,5.300
2023-09-08T13:54:46.065Z,6.000
2023-09-08T13:55:57.542Z,5.600
2023-09-08T13:56:44.402Z,5.900
2023-09-08T13:57:52.883Z,5.900
2023-09-08T13:58:57.276Z,5.200
2023-09-08T14:00:53.969Z,5.900
2023-09-08T14:01:47.895Z,6.200
2023-09-08T14:02:57.905Z,5.900
2023-09-08T14:04:03.198Z,5.400
2023-09-08T14:04:55.240Z,5.500
2023-09-08T14:06:01.951Z,5.400
2023-09-08T14:06:58.585Z,5.600
2023-09-08T14:09:55.416Z,5.900
2023-09-08T14:11:04.725Z,5.500
2023-09-08T14:12:44.288Z,5.900
2023-09-08T14:13:41.181Z,5.900
2023-09-08T14:14:39.516Z,5.500
2023-09-08T14:16:39.059Z,5.100
2023-09-08T14:17:39.590Z,5.100
2023-09-08T14:19:39.130Z,6.100
2023-09-08T14:20:38.915Z,5.900
2023-09-08T14:21:42.553Z,5.400
2023-09-08T14:22:39.160Z,6.000
2023-09-08T14:23:39.007Z,5.300
2023-09-08T14:24:39.681Z,5.500
2023-09-08T14:26:38.860Z,6.300
2023-09-08T14:27:39.557Z,5.600
2023-09-08T14:28:39.212Z,5.300
2023-09-08T14:29:39.145Z,5.100
2023-09-08T14:30:39.039Z,5.800
2023-09-08T14:31:38.890Z,5.800
2023-09-08T14:32:39.781Z,6.300
2023-09-08T14:33:40.784Z,5.800
2023-09-08T14:34:39.499Z,6.100
2023-09-08T14:35:39.375Z,5.900
2023-09-08T14:37:38.806Z,6.000
2023-09-08T14:38:39.469Z,5.900
2023-09-08T14:39:39.180Z,6.300
2023-09-08T14:40:38.771Z,5.500